createdAt,value
2022-11-12T00:00:17.390Z,21.97
2022-11-12T00:03:03.499Z,21.90
2022-11-12T00:05:50.780Z,22.03
2022-11-12T00:08:36.886Z,19.87
2022-11-12T00:11:22.526Z,20.07
2022-11-12T00:14:08.275Z,20.53
2022-11-12T00:16:54.197Z,20.03
2022-11-12T00:19:40.131Z,20.27
2022-11-12T00:22:26.075Z,20.80
2022-11-12T00:25:12.082Z,19.30
2022-11-12T00:28:24.735Z,19.80
2022-11-12T00:31:11.804Z,20.03
2022-11-12T00:33:57.315Z,19.43
2022-11-12T00:36:43.155Z,18.90
2022-11-12T00:39:29.729Z,19.40
2022-11-12T00:42:15.656Z,19.80
2022-11-12T00:45:01.730Z,18.63
2022-11-12T00:47:48.055Z,19.57
2022-11-12T00:50:33.519Z,18.70
2022-11-12T00:53:19.497Z,18.33
2022-11-12T00:56:06.220Z,18.90
2022-11-12T00:58:52.109Z,19.20
2022-11-12T01:01:39.380Z,18.03
2022-11-12T01:04:25.127Z,18.17
2022-11-12T01:07:11.177Z,18.80
2022-11-12T01:09:57.124Z,19.03
2022-11-12T01:12:42.741Z,18.83
2022-11-12T01:15:28.788Z,17.80
2022-11-12T01:18:14.961Z,18.83
2022-11-12T01:21:01.972Z,18.47
2022-11-12T01:23:47.701Z,18.30
2022-11-12T01:26:33.561Z,17.97
2022-11-12T01:29:19.503Z,18.27
2022-11-12T01:32:05.677Z,18.03
2022-11-12T01:34:51.911Z,18.57
2022-11-12T01:37:37.742Z,17.97
2022-11-12T01:40:23.846Z,18.33
2022-11-12T01:43:13.523Z,18.50
2022-11-12T01:46:00.446Z,18.80
2022-11-12T01:49:07.074Z,18.90
2022-11-12T01:51:55.439Z,18.17
2022-11-12T01:54:41.575Z,17.80
2022-11-12T01:57:34.424Z,18.80
2022-11-12T02:00:20.596Z,17.87
2022-11-12T02:03:09.999Z,18.13
2022-11-12T02:06:01.516Z,18.30
2022-11-12T02:08:47.272Z,18.60
2022-11-12T02:11:32.929Z,18.57
2022-11-12T02:14:18.904Z,17.83
2022-11-12T02:17:04.945Z,18.30
2022-11-12T02:19:52.334Z,19.47
2022-11-12T02:22:38.261Z,19.83
2022-11-12T02:25:25.386Z,19.47
2022-11-12T02:28:11.114Z,19.87
2022-11-12T02:30:57.080Z,19.70
2022-11-12T02:33:42.916Z,19.93
2022-11-12T02:36:28.979Z,20.90
2022-11-12T02:39:14.630Z,20.17
2022-11-12T02:42:00.384Z,20.40
2022-11-12T02:44:46.400Z,20.63
2022-11-12T02:47:32.290Z,20.10
2022-11-12T02:50:18.176Z,20.60
2022-11-12T02:53:04.417Z,19.13
2022-11-12T02:55:50.063Z,19.80
2022-11-12T02:58:36.192Z,21.30
2022-11-12T03:01:22.181Z,20.83
2022-11-12T03:04:08.105Z,19.90
2022-11-12T03:06:54.059Z,20.53
2022-11-12T03:09:39.869Z,21.77
2022-11-12T03:12:25.792Z,21.23
2022-11-12T03:15:11.735Z,21.47
2022-11-12T03:18:00.796Z,20.80
2022-11-12T03:20:46.375Z,21.73
2022-11-12T03:23:32.431Z,20.90
2022-11-12T03:26:18.191Z,21.20
2022-11-12T03:29:04.213Z,20.50
2022-11-12T03:31:50.154Z,20.40
2022-11-12T03:34:36.049Z,20.77
2022-11-12T03:37:22.141Z,19.90
2022-11-12T03:40:08.321Z,20.33
2022-11-12T03:42:54.167Z,20.50
2022-11-12T03:45:40.145Z,20.83
2022-11-12T03:48:26.265Z,20.87
2022-11-12T03:51:16.256Z,20.37
2022-11-12T03:54:02.478Z,19.97
2022-11-12T03:56:48.205Z,19.83
2022-11-12T03:59:34.175Z,18.90
2022-11-12T04:02:20.136Z,18.83
2022-11-12T04:05:25.535Z,18.53
2022-11-12T04:08:33.930Z,18.43
2022-11-12T04:11:20.358Z,18.77
2022-11-12T04:14:06.253Z,19.13
2022-11-12T04:17:10.728Z,18.40
2022-11-12T04:20:15.048Z,18.80
2022-11-12T04:23:00.850Z,18.03
2022-11-12T04:26:05.354Z,18.60
2022-11-12T04:29:09.695Z,18.07
2022-11-12T04:31:55.466Z,18.20
2022-11-12T04:34:41.397Z,18.20
2022-11-12T04:37:28.604Z,17.27
2022-11-12T04:40:33.750Z,18.00
2022-11-12T04:43:38.077Z,16.83
2022-11-12T04:46:24.185Z,17.40
2022-11-12T04:49:10.178Z,17.57
2022-11-12T04:52:04.996Z,17.43
2022-11-12T04:54:50.900Z,17.93
2022-11-12T04:57:36.598Z,17.50
2022-11-12T05:00:22.524Z,18.93
2022-11-12T05:03:08.323Z,19.03
2022-11-12T05:05:54.149Z,19.37
2022-11-12T05:08:40.032Z,20.20
2022-11-12T05:11:25.920Z,20.40
2022-11-12T05:14:11.812Z,21.27
2022-11-12T05:16:57.566Z,21.07
2022-11-12T05:19:44.234Z,20.40
2022-11-12T05:22:43.287Z,22.33
2022-11-12T05:25:29.875Z,21.63
2022-11-12T05:28:15.820Z,24.50
2022-11-12T05:31:01.706Z,24.90
2022-11-12T05:33:47.660Z,24.27
2022-11-12T05:36:34.137Z,24.57
2022-11-12T05:39:19.943Z,24.80
2022-11-12T05:42:14.293Z,25.10
2022-11-12T05:45:00.636Z,26.37
2022-11-12T05:47:46.454Z,26.03
2022-11-12T05:50:39.856Z,25.87
2022-11-12T05:53:31.480Z,25.67
2022-11-12T05:56:17.218Z,25.10
2022-11-12T05:59:04.738Z,24.60
2022-11-12T06:01:51.004Z,24.73
2022-11-12T06:04:36.777Z,24.23
2022-11-12T06:07:22.769Z,23.97
2022-11-12T06:10:08.939Z,25.93
2022-11-12T06:12:54.884Z,25.30
2022-11-12T06:15:40.639Z,25.20
2022-11-12T06:18:26.715Z,24.73
2022-11-12T06:21:22.951Z,26.20
2022-11-12T06:24:09.193Z,25.60
2022-11-12T06:26:54.733Z,25.90
2022-11-12T06:29:40.557Z,25.93
2022-11-12T06:32:26.464Z,26.27
2022-11-12T06:35:12.431Z,25.80
2022-11-12T06:37:58.106Z,27.60
2022-11-12T06:40:43.943Z,28.93
2022-11-12T06:43:31.158Z,29.13
2022-11-12T06:46:17.994Z,29.27
2022-11-12T06:49:03.812Z,30.07
2022-11-12T06:51:51.691Z,31.40
2022-11-12T06:54:37.162Z,32.67
2022-11-12T06:57:23.143Z,32.10
2022-11-12T07:00:11.830Z,33.10
2022-11-12T07:02:57.843Z,34.03
2022-11-12T07:05:43.945Z,33.00
2022-11-12T07:08:29.959Z,33.73
2022-11-12T07:11:16.455Z,32.93
2022-11-12T07:14:02.015Z,31.37
2022-11-12T07:16:47.829Z,34.80
2022-11-12T07:19:33.709Z,32.73
2022-11-12T07:22:19.802Z,31.03
2022-11-12T07:25:05.954Z,30.73
2022-11-12T07:27:51.737Z,30.80
2022-11-12T07:30:37.875Z,30.47
2022-11-12T07:33:23.761Z,30.07
2022-11-12T07:36:11.009Z,30.87
2022-11-12T07:38:56.777Z,31.67
2022-11-12T07:41:42.530Z,31.60
2022-11-12T07:44:28.356Z,31.77
2022-11-12T07:47:14.127Z,30.30
2022-11-12T07:50:00.334Z,32.37
2022-11-12T07:52:45.977Z,31.93
2022-11-12T07:55:32.004Z,32.83
2022-11-12T07:58:17.929Z,33.40
2022-11-12T08:01:23.390Z,35.20
2022-11-12T08:04:10.220Z,35.30
2022-11-12T08:06:55.856Z,34.87
2022-11-12T08:09:41.702Z,36.43
2022-11-12T08:12:27.589Z,36.37
2022-11-12T08:15:13.588Z,37.90
2022-11-12T08:17:59.489Z,37.40
2022-11-12T08:20:45.405Z,37.00
2022-11-12T08:23:31.287Z,36.43
2022-11-12T08:26:18.253Z,37.40
2022-11-12T08:29:08.669Z,36.40
2022-11-12T08:31:55.268Z,35.63
2022-11-12T08:34:41.557Z,35.80
2022-11-12T08:37:27.569Z,35.10
2022-11-12T08:40:13.570Z,36.63
2022-11-12T08:42:59.647Z,34.03
2022-11-12T08:45:45.516Z,35.20
2022-11-12T08:48:32.043Z,36.17
2022-11-12T08:51:17.605Z,36.77
2022-11-12T08:54:03.443Z,33.90
2022-11-12T08:56:49.428Z,37.80
2022-11-12T17:32:04.258Z,26.33
2022-11-12T17:34:50.569Z,25.63
2022-11-12T17:37:36.395Z,26.03
2022-11-12T17:40:22.299Z,25.77
2022-11-12T17:43:08.195Z,25.33
2022-11-12T17:45:54.864Z,25.60
2022-11-12T17:48:41.812Z,26.30
2022-11-12T17:51:29.659Z,26.63
2022-11-12T17:54:15.853Z,26.17
2022-11-12T17:57:01.920Z,26.27
2022-11-12T17:59:48.185Z,26.20
2022-11-12T18:02:34.145Z,25.63
2022-11-12T18:05:20.555Z,25.90
2022-11-12T18:08:06.528Z,25.67
2022-11-12T18:10:53.035Z,25.80
2022-11-12T18:13:39.085Z,25.43
2022-11-12T18:16:26.954Z,25.13
2022-11-12T18:19:12.828Z,25.40
2022-11-12T18:21:59.833Z,25.57
2022-11-12T18:24:47.820Z,24.40
2022-11-12T18:27:33.640Z,24.60
2022-11-12T18:30:19.858Z,27.90
2022-11-12T18:33:06.585Z,25.47
2022-11-12T18:36:02.517Z,26.43
2022-11-12T18:38:50.201Z,25.90
2022-11-12T18:41:36.464Z,27.00
2022-11-12T18:44:26.038Z,27.20
2022-11-12T18:47:12.219Z,26.47
2022-11-12T18:49:58.121Z,27.10
2022-11-12T18:52:44.664Z,26.60
2022-11-12T18:55:30.934Z,26.50
2022-11-12T18:58:16.918Z,27.30
2022-11-12T19:01:10.407Z,27.17
2022-11-12T19:03:57.289Z,30.95
2022-11-12T19:06:43.089Z,28.08
2022-11-12T19:09:28.992Z,31.40
2022-11-12T19:12:14.953Z,28.07
2022-11-12T19:15:00.917Z,28.73
2022-11-12T19:17:46.734Z,32.33
2022-11-12T19:20:32.726Z,29.73
2022-11-12T19:23:18.672Z,29.80
2022-11-12T19:26:05.277Z,31.07
2022-11-12T19:28:51.435Z,30.60
2022-11-12T19:31:37.396Z,31.20
2022-11-12T19:34:23.516Z,31.50
2022-11-12T19:37:32.408Z,31.30
2022-11-12T19:40:15.257Z,31.80
2022-11-12T19:43:01.164Z,32.70
2022-11-12T19:45:47.190Z,32.23
2022-11-12T19:48:33.223Z,32.17
2022-11-12T19:51:19.233Z,32.37
2022-11-12T19:54:05.261Z,32.57
2022-11-12T19:56:51.115Z,33.07
2022-11-12T19:59:37.033Z,33.73
2022-11-12T20:02:23.113Z,32.13
2022-11-12T20:05:09.300Z,34.73
2022-11-12T20:07:54.803Z,34.50
2022-11-12T20:10:40.566Z,36.37
2022-11-12T20:13:26.669Z,36.80
2022-11-12T20:16:13.613Z,38.37
2022-11-12T20:19:01.475Z,38.27
2022-11-12T20:21:47.348Z,41.00
2022-11-12T20:24:33.406Z,39.97
2022-11-12T20:27:19.369Z,38.97
2022-11-12T20:30:05.779Z,41.33
2022-11-12T20:32:52.249Z,41.50
2022-11-12T20:35:38.200Z,43.67
2022-11-12T20:38:24.935Z,44.63
2022-11-12T20:41:15.347Z,44.30
2022-11-12T20:44:01.161Z,45.27
2022-11-12T20:46:48.087Z,46.93
2022-11-12T20:49:34.203Z,46.70
2022-11-12T20:52:19.918Z,48.07
2022-11-12T20:55:06.040Z,48.20
2022-11-12T20:57:51.974Z,47.50
2022-11-12T21:00:38.925Z,49.03
2022-11-12T21:03:24.681Z,48.57
2022-11-12T21:06:12.726Z,50.43
2022-11-12T21:09:00.074Z,51.20
2022-11-12T21:11:46.031Z,52.43
2022-11-12T21:14:32.014Z,50.20
2022-11-12T21:17:19.590Z,49.97
2022-11-12T21:20:05.727Z,53.20
2022-11-12T21:22:51.886Z,52.27
2022-11-12T21:25:38.372Z,52.23
2022-11-12T21:28:24.336Z,54.07
2022-11-12T21:31:14.400Z,52.50
2022-11-12T21:34:01.057Z,54.03
2022-11-12T21:36:46.922Z,54.03
2022-11-12T21:39:32.825Z,53.40
2022-11-12T21:42:18.522Z,52.03
2022-11-12T21:45:04.726Z,52.57
2022-11-12T21:47:50.583Z,52.63
2022-11-12T21:50:36.678Z,54.23
2022-11-12T21:53:22.841Z,53.43
2022-11-12T21:56:10.637Z,53.73
2022-11-12T21:59:01.332Z,55.17
2022-11-12T22:01:47.349Z,52.47
2022-11-12T22:04:33.514Z,52.77
2022-11-12T22:07:19.343Z,55.13
2022-11-12T22:10:05.348Z,53.73
2022-11-12T22:13:19.949Z,55.60
2022-11-12T22:15:57.386Z,55.33
2022-11-12T22:18:43.452Z,55.67
2022-11-12T22:21:32.113Z,54.63
2022-11-12T22:24:21.634Z,52.00
2022-11-12T22:27:07.506Z,52.70
2022-11-12T22:29:53.478Z,52.57
2022-11-12T22:32:39.321Z,52.13
2022-11-12T22:35:25.125Z,51.37
2022-11-12T22:38:11.161Z,53.33
2022-11-12T22:41:01.773Z,52.93
2022-11-12T22:43:51.786Z,52.50
2022-11-12T22:46:37.777Z,53.07
2022-11-12T22:49:23.693Z,53.07
2022-11-12T22:52:09.653Z,53.47
2022-11-12T22:54:55.442Z,55.40
2022-11-12T22:57:41.368Z,55.43
2022-11-12T23:04:54.701Z,55.17
2022-11-12T23:07:40.662Z,55.00
2022-11-12T23:10:26.696Z,55.23
2022-11-12T23:13:12.539Z,53.77
2022-11-12T23:16:18.434Z,53.80
2022-11-12T23:19:04.290Z,55.30
2022-11-12T23:21:50.106Z,50.07
2022-11-12T23:24:35.986Z,48.17
2022-11-12T23:27:21.968Z,50.30
2022-11-12T23:30:08.148Z,48.13
2022-11-12T23:32:53.983Z,48.17
2022-11-12T23:35:40.034Z,48.10
2022-11-12T23:38:26.298Z,49.10
2022-11-12T23:41:15.145Z,49.40
2022-11-12T23:44:01.106Z,49.07
2022-11-12T23:46:47.128Z,47.80
2022-11-12T23:49:33.189Z,45.17
2022-11-12T23:52:19.319Z,45.20
2022-11-12T23:55:05.394Z,42.83
2022-11-12T23:57:53.513Z,41.53
